Time;durP1;ratioP1;P1;durP2;ratioP2;P2;SDS_P1;SDS_P2;PMS_P1;PMS_P2;Temp;Humidity;BMP_temperature;BMP_pressure;BME280_temperature;BME280_humidity;BME280_pressure;Samples;Min_cycle;Max_cycle;Signal;HPM_P1;HPM_P2
2022/12/11 00:00:52;;;;;;;11.00;4.57;;;15.80;99.90;;;;;;4968408;28;20045;-72
2022/12/11 00:03:20;;;;;;;8.98;4.68;;;15.80;99.90;;;;;;4937223;28;20054;-73
2022/12/11 00:05:47;;;;;;;18.23;4.88;;;15.90;99.90;;;;;;4969656;28;20161;-73
2022/12/11 00:08:16;;;;;;;12.38;3.65;;;15.80;99.90;;;;;;4970276;28;20046;-74
2022/12/11 00:10:48;;;;;;;5.88;3.55;;;15.80;99.90;;;;;;4964294;28;20051;-73
2022/12/11 00:13:16;;;;;;;13.98;5.28;;;15.80;99.90;;;;;;4969525;28;20081;-73
2022/12/11 00:15:43;;;;;;;13.30;3.55;;;15.80;99.90;;;;;;4970594;28;20346;-73
2022/12/11 00:18:14;;;;;;;15.48;4.60;;;15.70;99.90;;;;;;4970833;28;20053;-73
2022/12/11 00:20:41;;;;;;;15.45;4.28;;;15.70;99.90;;;;;;4952899;28;20047;-73
2022/12/11 00:23:12;;;;;;;12.23;4.63;;;15.70;99.90;;;;;;4968843;28;20051;-73
2022/12/11 00:25:45;;;;;;;19.08;5.50;;;15.70;99.90;;;;;;4969511;28;20054;-73
2022/12/11 00:28:16;;;;;;;12.10;4.95;;;15.60;99.90;;;;;;4970537;28;20161;-73
2022/12/11 00:30:44;;;;;;;11.25;3.40;;;15.60;99.90;;;;;;4956370;28;20114;-73
2022/12/11 00:33:13;;;;;;;16.05;5.47;;;15.60;99.90;;;;;;4951577;28;20057;-73
2022/12/11 00:35:44;;;;;;;11.52;4.07;;;15.60;99.90;;;;;;4949751;29;20051;-73
2022/12/11 00:38:16;;;;;;;22.77;5.70;;;15.50;99.90;;;;;;4951281;28;20043;-72
2022/12/11 00:40:44;;;;;;;14.73;4.32;;;15.50;99.90;;;;;;4966661;28;20070;-73
2022/12/11 00:43:13;;;;;;;11.75;3.90;;;15.60;99.90;;;;;;4953491;28;20563;-73
2022/12/11 00:45:45;;;;;;;15.20;4.75;;;15.60;99.90;;;;;;4970115;28;20051;-73
2022/12/11 00:48:13;;;;;;;17.17;3.55;;;15.50;99.90;;;;;;4969314;28;20524;-72
2022/12/11 00:50:41;;;;;;;15.68;4.95;;;15.60;99.90;;;;;;4969874;28;20050;-73
2022/12/11 00:53:09;;;;;;;12.93;3.92;;;15.60;99.90;;;;;;4968876;28;20257;-74
2022/12/11 00:55:38;;;;;;;11.23;3.95;;;15.50;99.90;;;;;;4968750;28;20042;-73
2022/12/11 00:58:07;;;;;;;19.75;5.20;;;15.60;99.90;;;;;;4969135;28;20121;-73
2022/12/11 01:00:34;;;;;;;14.23;3.90;;;15.60;99.90;;;;;;4955274;28;20393;-73
2022/12/11 01:03:03;;;;;;;13.23;4.40;;;15.50;99.90;;;;;;4949615;29;20067;-73
2022/12/11 01:05:31;;;;;;;11.90;4.57;;;15.50;99.90;;;;;;4950434;28;20125;-74
2022/12/11 01:07:59;;;;;;;9.52;3.95;;;15.50;99.90;;;;;;4950994;28;20078;-73
2022/12/11 01:10:27;;;;;;;13.18;4.55;;;15.50;99.90;;;;;;4964334;28;20055;-74
2022/12/11 01:12:57;;;;;;;16.50;4.93;;;15.50;99.90;;;;;;4969739;28;20046;-73
2022/12/11 01:15:28;;;;;;;15.43;4.65;;;15.50;99.90;;;;;;4958616;28;20054;-73
2022/12/11 01:17:56;;;;;;;9.55;3.45;;;15.50;99.90;;;;;;4976626;28;20377;-73
2022/12/11 01:20:26;;;;;;;6.55;3.22;;;15.50;99.90;;;;;;4962694;28;20100;-74
2022/12/11 01:22:56;;;;;;;12.00;4.78;;;15.50;99.90;;;;;;4956124;28;20055;-74
2022/12/11 01:25:25;;;;;;;11.25;4.38;;;15.60;99.90;;;;;;4957086;28;20205;-73
2022/12/11 01:27:53;;;;;;;18.35;4.97;;;15.60;99.90;;;;;;4972076;28;20058;-74
2022/12/11 01:30:24;;;;;;;13.90;5.82;;;15.50;99.90;;;;;;4970744;28;20133;-73
2022/12/11 01:32:51;;;;;;;17.40;4.43;;;15.50;99.90;;;;;;4970433;28;20529;-75
2022/12/11 01:35:19;;;;;;;20.85;5.32;;;15.50;99.90;;;;;;4972533;28;20047;-75
2022/12/11 01:37:47;;;;;;;12.75;3.78;;;15.50;99.90;;;;;;4973938;28;20043;-76
2022/12/11 01:40:18;;;;;;;11.65;3.30;;;15.50;99.90;;;;;;4964694;28;20484;-74
2022/12/11 01:42:45;;;;;;;11.35;4.43;;;15.50;99.90;;;;;;4977342;28;20056;-74
2022/12/11 01:45:30;;;;;;;12.15;4.53;;;15.50;99.90;;;;;;4979872;28;20520;-76
2022/12/11 01:48:07;;;;;;;12.38;4.38;;;15.50;99.90;;;;;;4963722;28;20133;-75
2022/12/11 01:50:43;;;;;;;10.43;3.88;;;15.40;99.90;;;;;;4953644;28;20485;-73
2022/12/11 01:53:15;;;;;;;16.95;3.90;;;15.40;99.90;;;;;;4974631;28;20508;-74
2022/12/11 01:55:45;;;;;;;11.20;4.88;;;15.40;99.90;;;;;;4975063;28;20125;-73
2022/12/11 01:58:14;;;;;;;15.98;4.25;;;15.30;99.90;;;;;;4974408;28;20505;-74
2022/12/11 02:00:41;;;;;;;10.75;4.20;;;15.30;99.90;;;;;;4956603;28;20183;-73
2022/12/11 02:03:09;;;;;;;14.00;4.78;;;15.30;99.90;;;;;;4976030;28;20050;-74
2022/12/11 02:05:36;;;;;;;14.18;6.03;;;15.30;99.90;;;;;;4974319;28;20394;-75
2022/12/11 02:08:06;;;;;;;10.13;4.20;;;15.30;99.90;;;;;;4976117;28;20085;-74
2022/12/11 02:11:04;;;;;;;9.95;4.03;;;15.40;99.90;;;;;;4958916;28;20475;-74
2022/12/11 02:14:19;;;;;;;7.07;3.40;;;15.40;99.90;;;;;;4939252;29;20051;-75
2022/12/11 02:17:05;;;;;;;13.65;5.38;;;15.40;99.90;;;;;;4926489;28;20455;-74
2022/12/11 02:19:50;;;;;;;19.50;4.88;;;15.40;99.90;;;;;;4961942;28;20051;-75
2022/12/11 02:22:59;;;;;;;15.38;4.22;;;15.40;99.90;;;;;;4973056;28;20051;-74
2022/12/11 02:25:32;;;;;;;17.38;4.93;;;15.40;99.90;;;;;;4970714;28;20062;-74
2022/12/11 02:28:29;;;;;;;14.63;4.28;;;15.40;99.90;;;;;;4956003;28;20062;-74
2022/12/11 02:31:08;;;;;;;17.00;4.00;;;15.30;99.90;;;;;;4938718;29;20061;-74
2022/12/11 02:33:44;;;;;;;12.25;4.47;;;15.40;99.90;;;;;;4953237;28;20501;-73
2022/12/11 02:36:15;;;;;;;17.08;4.22;;;15.40;99.90;;;;;;4953393;28;20184;-75
2022/12/11 02:38:49;;;;;;;13.70;4.13;;;15.40;99.90;;;;;;4955692;28;20057;-74
2022/12/11 02:41:19;;;;;;;11.25;3.45;;;15.40;99.90;;;;;;4955121;28;20054;-74
2022/12/11 02:43:48;;;;;;;12.70;4.28;;;15.40;99.90;;;;;;4971657;28;20094;-74
2022/12/11 02:46:18;;;;;;;9.85;4.03;;;15.30;99.90;;;;;;4971488;28;20521;-74
2022/12/11 02:48:48;;;;;;;14.93;4.10;;;15.30;99.90;;;;;;4971382;28;20065;-74
2022/12/11 02:51:20;;;;;;;14.48;6.35;;;15.30;99.90;;;;;;4970562;28;20533;-74
2022/12/11 02:53:50;;;;;;;8.02;3.05;;;15.30;99.90;;;;;;4972508;28;20046;-73
2022/12/11 02:56:28;;;;;;;12.20;3.55;;;15.30;99.90;;;;;;4971317;28;20053;-74
2022/12/11 02:59:01;;;;;;;9.27;5.05;;;15.30;99.90;;;;;;4971950;28;20507;-74
2022/12/11 03:01:29;;;;;;;7.97;3.40;;;15.30;99.90;;;;;;4952800;29;20048;-74
2022/12/11 03:03:57;;;;;;;16.92;4.65;;;15.30;99.90;;;;;;4952419;29;20090;-74
2022/12/11 03:06:34;;;;;;;10.18;3.10;;;15.20;99.90;;;;;;4951425;29;20047;-74
2022/12/11 03:09:04;;;;;;;7.18;3.33;;;15.20;99.90;;;;;;4952008;28;20039;-74
2022/12/11 03:11:31;;;;;;;7.70;2.90;;;15.20;99.90;;;;;;4952194;28;20066;-74
2022/12/11 03:14:01;;;;;;;11.25;3.97;;;15.20;99.90;;;;;;4970542;28;20514;-74
2022/12/11 03:16:45;;;;;;;16.63;3.83;;;15.20;99.90;;;;;;4970782;28;20082;-74
2022/12/11 03:19:30;;;;;;;8.65;3.92;;;15.20;99.90;;;;;;4967859;28;20070;-74
2022/12/11 03:22:08;;;;;;;7.88;4.03;;;15.10;99.90;;;;;;4935718;29;20054;-75
2022/12/11 03:24:47;;;;;;;12.27;3.30;;;15.20;99.90;;;;;;4934678;28;20359;-74
2022/12/11 03:27:22;;;;;;;11.60;3.85;;;15.10;99.90;;;;;;4951627;28;20051;-75
2022/12/11 03:30:04;;;;;;;16.73;4.47;;;15.10;99.90;;;;;;4958983;28;20080;-74
2022/12/11 03:32:52;;;;;;;11.70;4.60;;;15.10;99.90;;;;;;4970377;28;20066;-75
2022/12/11 03:35:39;;;;;;;12.40;3.72;;;15.10;99.90;;;;;;4969146;28;20073;-74
2022/12/11 03:38:14;;;;;;;11.50;3.83;;;15.10;99.90;;;;;;4971500;28;20073;-75
2022/12/11 03:40:47;;;;;;;14.80;3.70;;;15.00;99.90;;;;;;4954377;28;20062;-73
2022/12/11 03:43:16;;;;;;;10.95;3.05;;;14.90;99.90;;;;;;4970179;28;20054;-74
2022/12/11 03:45:45;;;;;;;12.55;3.38;;;14.90;99.90;;;;;;4970231;28;20050;-74
2022/12/11 03:48:16;;;;;;;10.27;4.20;;;14.90;99.90;;;;;;4971461;28;20106;-74
2022/12/11 03:50:45;;;;;;;17.15;3.78;;;14.90;99.90;;;;;;4970978;28;20051;-74
2022/12/11 03:53:15;;;;;;;20.13;5.28;;;14.90;99.90;;;;;;4971422;28;20109;-76
2022/12/11 03:55:42;;;;;;;7.85;3.45;;;14.80;99.90;;;;;;4969728;28;20050;-74
2022/12/11 03:58:10;;;;;;;9.63;2.70;;;14.80;99.90;;;;;;4971374;28;20054;-74
2022/12/11 04:00:37;;;;;;;11.90;3.40;;;14.80;99.90;;;;;;4957891;28;20509;-74
2022/12/11 04:03:11;;;;;;;8.35;2.83;;;14.80;99.90;;;;;;4950168;29;20214;-74
2022/12/11 04:05:42;;;;;;;12.18;3.35;;;14.80;99.90;;;;;;4952049;29;20145;-74
2022/12/11 04:08:10;;;;;;;9.15;3.65;;;14.80;99.90;;;;;;4934732;29;20066;-74
2022/12/11 04:10:39;;;;;;;8.95;3.20;;;14.80;99.90;;;;;;4964303;28;20081;-74
2022/12/11 04:13:07;;;;;;;7.45;2.95;;;14.80;99.90;;;;;;4969580;28;20065;-73
2022/12/11 04:15:36;;;;;;;8.63;2.75;;;14.80;99.90;;;;;;4953015;28;20043;-74
2022/12/11 04:26:27;;;;;;;15.53;4.40;;;14.80;99.90;;;;;;4949964;28;20069;-75
2022/12/11 04:28:54;;;;;;;11.90;2.95;;;14.80;99.90;;;;;;4968570;28;20098;-74
2022/12/11 04:31:21;;;;;;;8.45;4.00;;;14.80;99.90;;;;;;4957013;28;20051;-74
2022/12/11 04:33:49;;;;;;;7.18;2.42;;;14.90;99.90;;;;;;4949693;29;20134;-74
2022/12/11 04:36:17;;;;;;;6.35;3.47;;;14.90;99.90;;;;;;4949576;29;20054;-75
2022/12/11 04:38:44;;;;;;;7.18;2.70;;;14.90;99.90;;;;;;4957515;28;20035;-74
2022/12/11 04:41:14;;;;;;;11.05;2.50;;;14.90;99.90;;;;;;4970467;28;20035;-74
2022/12/11 04:43:45;;;;;;;11.18;2.95;;;15.00;99.90;;;;;;4968556;28;20051;-74
2022/12/11 04:46:18;;;;;;;15.80;3.75;;;14.90;99.90;;;;;;4969675;28;20043;-74
2022/12/11 04:48:46;;;;;;;8.20;2.90;;;15.00;99.90;;;;;;4968969;28;20467;-74
2022/12/11 04:51:15;;;;;;;6.05;2.10;;;15.00;99.90;;;;;;4952621;28;20051;-74
2022/12/11 04:53:43;;;;;;;12.07;3.08;;;15.00;99.90;;;;;;4918496;29;20140;-74
2022/12/11 04:56:13;;;;;;;9.10;3.40;;;15.00;99.90;;;;;;4970047;28;20058;-74
2022/12/11 04:58:41;;;;;;;8.27;2.95;;;14.90;99.90;;;;;;4970388;28;20135;-74
2022/12/11 05:01:18;;;;;;;8.85;3.85;;;14.90;99.90;;;;;;4952307;28;20051;-74
2022/12/11 05:03:45;;;;;;;10.23;3.30;;;14.90;99.90;;;;;;4949045;29;20121;-74
2022/12/11 05:06:14;;;;;;;7.97;3.10;;;14.90;99.90;;;;;;4949554;29;20134;-74
2022/12/11 05:08:42;;;;;;;8.38;2.53;;;14.90;99.90;;;;;;4950824;29;20055;-74
2022/12/11 05:11:13;;;;;;;8.90;2.38;;;14.90;99.90;;;;;;4951070;29;20082;-74
2022/12/11 05:13:41;;;;;;;9.50;2.35;;;14.90;99.90;;;;;;4950550;29;20452;-74
2022/12/11 05:16:11;;;;;;;9.43;3.55;;;14.90;99.90;;;;;;4949045;29;20044;-74
2022/12/11 05:18:39;;;;;;;6.25;2.95;;;14.90;99.90;;;;;;4948792;29;20043;-74
2022/12/11 05:21:10;;;;;;;7.55;3.45;;;14.90;99.90;;;;;;4963435;28;20058;-75
2022/12/11 05:23:38;;;;;;;4.40;1.60;;;14.90;99.90;;;;;;4968370;28;20051;-74
2022/12/11 05:26:08;;;;;;;7.40;2.88;;;14.80;99.90;;;;;;4968386;28;20055;-74
2022/12/11 05:28:37;;;;;;;7.78;2.60;;;14.80;99.90;;;;;;4969888;28;20077;-74
2022/12/11 05:31:10;;;;;;;4.13;1.67;;;14.90;99.90;;;;;;4954259;28;20063;-74
2022/12/11 05:33:38;;;;;;;13.45;2.65;;;14.90;99.90;;;;;;4949467;29;20486;-74
2022/12/11 05:36:06;;;;;;;4.20;1.33;;;14.90;99.90;;;;;;4950631;28;20043;-74
2022/12/11 05:38:34;;;;;;;6.00;3.33;;;14.90;99.90;;;;;;4962834;28;20126;-75
2022/12/11 05:41:04;;;;;;;6.65;1.95;;;15.00;99.90;;;;;;4969919;28;20501;-75
2022/12/11 05:43:34;;;;;;;3.90;1.48;;;15.00;99.90;;;;;;4968048;28;20351;-74
2022/12/11 05:46:07;;;;;;;3.15;1.85;;;15.00;99.90;;;;;;4969804;28;20042;-75
2022/12/11 05:48:36;;;;;;;11.20;2.55;;;15.10;99.90;;;;;;4968739;28;20052;-74
2022/12/11 05:51:04;;;;;;;7.45;1.77;;;15.00;99.90;;;;;;4969705;28;20840;-74
2022/12/11 05:53:32;;;;;;;8.63;1.80;;;15.00;99.90;;;;;;4968258;28;20055;-75
2022/12/11 05:56:05;;;;;;;2.05;1.40;;;15.00;99.90;;;;;;4969422;28;20162;-74
2022/12/11 05:58:34;;;;;;;5.25;1.88;;;14.90;99.90;;;;;;4952532;28;20182;-75
2022/12/11 06:01:05;;;;;;;5.15;1.60;;;14.90;99.90;;;;;;4958940;28;20118;-75
2022/12/11 06:03:33;;;;;;;10.00;1.60;;;14.90;99.90;;;;;;4936447;29;20150;-74
2022/12/11 06:06:01;;;;;;;5.80;1.80;;;14.90;99.90;;;;;;4954180;28;20074;-74
2022/12/11 06:08:30;;;;;;;7.95;1.48;;;14.90;99.90;;;;;;4952512;29;20082;-74
2022/12/11 06:10:57;;;;;;;12.38;2.35;;;15.00;99.90;;;;;;4950438;28;20494;-73
2022/12/11 06:13:25;;;;;;;4.68;1.63;;;14.90;99.90;;;;;;4972776;28;20043;-74
2022/12/11 06:15:53;;;;;;;2.90;1.70;;;14.90;99.90;;;;;;4971852;28;20090;-74
2022/12/11 06:18:21;;;;;;;5.13;2.47;;;14.80;99.90;;;;;;4973458;28;20062;-74
2022/12/11 06:20:48;;;;;;;3.83;1.50;;;14.90;99.90;;;;;;4959304;28;20043;-74
2022/12/11 06:23:15;;;;;;;4.60;1.42;;;14.90;99.90;;;;;;4951879;29;20046;-73
2022/12/11 06:25:43;;;;;;;5.70;1.98;;;14.90;99.90;;;;;;4966913;28;20062;-74
2022/12/11 06:28:10;;;;;;;7.35;2.05;;;14.90;99.90;;;;;;4963703;28;20143;-74
2022/12/11 06:30:38;;;;;;;3.78;1.60;;;14.90;99.90;;;;;;4975611;28;20042;-74
2022/12/11 06:33:06;;;;;;;1.45;0.98;;;14.60;99.90;;;;;;4990607;28;20057;-74
2022/12/11 06:35:33;;;;;;;2.60;0.80;;;14.40;99.90;;;;;;4989708;28;20152;-75
2022/12/11 06:38:04;;;;;;;1.52;1.10;;;14.30;99.90;;;;;;4974478;28;20161;-74
2022/12/11 06:40:32;;;;;;;2.13;1.15;;;14.30;99.90;;;;;;4980914;28;20070;-74
2022/12/11 06:43:00;;;;;;;1.88;1.20;;;14.30;99.90;;;;;;4972703;28;20046;-74
2022/12/11 06:45:28;;;;;;;2.05;0.90;;;14.30;99.90;;;;;;4968852;28;20469;-74
2022/12/11 06:47:55;;;;;;;1.45;0.90;;;14.30;99.90;;;;;;4969300;28;20094;-75
2022/12/11 06:50:23;;;;;;;3.95;1.52;;;14.40;99.90;;;;;;4970502;28;20425;-75
2022/12/11 06:52:50;;;;;;;2.10;1.25;;;14.50;99.90;;;;;;4953636;28;20050;-74
2022/12/11 06:55:18;;;;;;;6.05;1.30;;;14.50;99.90;;;;;;4968512;28;20047;-74
2022/12/11 06:57:45;;;;;;;2.65;0.98;;;14.60;99.90;;;;;;4953572;28;20744;-74
2022/12/11 07:00:13;;;;;;;4.50;2.22;;;14.60;99.90;;;;;;4955596;28;20043;-74
2022/12/11 07:02:41;;;;;;;4.95;2.13;;;14.60;99.90;;;;;;4951940;29;20051;-74
2022/12/11 07:05:08;;;;;;;6.85;4.30;;;14.70;99.90;;;;;;4952570;28;20187;-74
2022/12/11 07:07:36;;;;;;;5.28;3.58;;;14.70;99.90;;;;;;4966368;28;20046;-74
2022/12/11 07:10:04;;;;;;;5.57;3.17;;;14.70;99.90;;;;;;4970723;28;20370;-74
2022/12/11 07:12:35;;;;;;;5.15;2.05;;;14.60;99.90;;;;;;4972340;28;20121;-74
2022/12/11 07:15:03;;;;;;;3.47;1.33;;;14.60;99.90;;;;;;4954612;28;20362;-76
2022/12/11 07:17:31;;;;;;;3.50;2.03;;;14.70;99.90;;;;;;4969341;28;20047;-74
2022/12/11 07:19:58;;;;;;;2.92;1.92;;;14.70;99.90;;;;;;4965657;28;20054;-74
2022/12/11 07:22:27;;;;;;;3.22;1.73;;;14.80;99.90;;;;;;4935844;29;20055;-74
2022/12/11 07:24:55;;;;;;;3.65;1.70;;;15.20;99.90;;;;;;4951011;28;20150;-74
2022/12/11 07:27:23;;;;;;;5.25;3.30;;;15.60;99.90;;;;;;4952410;28;20047;-74
2022/12/11 07:29:50;;;;;;;15.60;9.95;;;16.30;99.90;;;;;;4955151;28;20051;-75
2022/12/11 07:32:18;;;;;;;11.43;6.95;;;17.20;99.90;;;;;;4970503;28;20043;-74
2022/12/11 07:34:47;;;;;;;22.55;11.05;;;17.90;99.90;;;;;;4970107;28;20088;-74
2022/12/11 07:37:18;;;;;;;7.38;4.40;;;18.90;99.90;;;;;;4954125;28;20445;-74
2022/12/11 07:39:47;;;;;;;4.30;2.20;;;19.70;99.90;;;;;;4968698;28;20039;-74
2022/12/11 07:42:15;;;;;;;10.10;6.10;;;20.30;99.90;;;;;;4967738;28;20065;-74
2022/12/11 07:44:42;;;;;;;14.73;7.80;;;20.60;99.90;;;;;;4970002;28;20067;-74
2022/12/11 07:47:10;;;;;;;7.25;3.95;;;20.80;99.90;;;;;;4954157;28;20081;-74
2022/12/11 07:49:38;;;;;;;3.88;2.78;;;20.80;99.90;;;;;;4970087;28;20116;-74
2022/12/11 07:52:05;;;;;;;3.80;2.30;;;20.60;99.90;;;;;;4971313;28;20039;-73
2022/12/11 07:54:33;;;;;;;4.10;3.63;;;20.10;99.90;;;;;;4971243;28;20157;-75
2022/12/11 07:57:01;;;;;;;3.78;3.00;;;19.80;99.90;;;;;;4971583;28;20062;-74
2022/12/11 07:59:28;;;;;;;5.32;3.20;;;19.40;99.90;;;;;;4971125;28;20105;-74
2022/12/11 08:01:56;;;;;;;3.97;2.35;;;18.90;99.90;;;;;;4969443;28;20059;-74
2022/12/11 08:04:23;;;;;;;2.08;1.60;;;18.30;99.90;;;;;;4969664;28;20050;-74
2022/12/11 08:06:51;;;;;;;6.03;2.30;;;17.80;99.90;;;;;;4953504;28;20055;-74
2022/12/11 08:09:21;;;;;;;4.65;2.58;;;17.40;99.90;;;;;;4970541;28;20406;-74
2022/12/11 08:11:49;;;;;;;4.57;2.13;;;17.30;99.90;;;;;;4934530;29;20051;-74
2022/12/11 08:14:18;;;;;;;3.83;2.10;;;17.10;99.90;;;;;;4950149;29;20047;-76
2022/12/11 08:16:46;;;;;;;2.63;1.70;;;17.00;99.90;;;;;;4952353;28;20054;-73
2022/12/11 08:19:14;;;;;;;2.65;1.48;;;17.00;99.90;;;;;;4934132;29;20144;-76
2022/12/11 08:21:42;;;;;;;2.70;1.80;;;16.90;99.90;;;;;;4950818;28;20067;-74
2022/12/11 08:24:10;;;;;;;3.63;1.60;;;16.90;99.90;;;;;;4969001;28;20049;-74
2022/12/11 08:26:38;;;;;;;2.60;1.70;;;16.80;99.90;;;;;;4969108;28;20058;-75
2022/12/11 08:29:05;;;;;;;2.17;1.65;;;16.90;99.90;;;;;;4969412;28;20042;-74
2022/12/11 08:31:33;;;;;;;3.25;1.73;;;17.00;99.90;;;;;;4957354;28;20058;-74
2022/12/11 08:34:01;;;;;;;3.83;2.50;;;17.10;99.90;;;;;;4970531;28;20051;-74
2022/12/11 08:36:28;;;;;;;3.17;2.17;;;17.20;99.90;;;;;;4953376;28;20038;-74
2022/12/11 08:38:56;;;;;;;3.20;2.00;;;17.30;99.90;;;;;;4969592;28;20073;-75
2022/12/11 08:41:27;;;;;;;4.93;2.88;;;17.30;99.90;;;;;;4968579;28;20081;-73
2022/12/11 08:43:56;;;;;;;7.38;2.72;;;17.20;99.90;;;;;;4952858;28;20085;-74
2022/12/11 08:46:26;;;;;;;5.80;2.83;;;17.20;99.90;;;;;;4952795;28;20133;-74
2022/12/11 08:48:55;;;;;;;4.35;2.67;;;17.20;99.90;;;;;;4970289;28;20047;-75
2022/12/11 08:51:25;;;;;;;4.10;2.13;;;17.30;99.90;;;;;;4969525;28;20138;-76
2022/12/11 08:53:57;;;;;;;2.78;1.90;;;17.50;99.90;;;;;;4969808;28;20054;-74
2022/12/11 08:56:26;;;;;;;3.83;1.80;;;17.50;99.90;;;;;;4952374;28;20050;-73
2022/12/11 08:58:54;;;;;;;3.55;1.65;;;17.60;99.90;;;;;;4968728;28;20548;-74
2022/12/11 09:01:24;;;;;;;5.10;2.45;;;17.80;99.90;;;;;;4955346;28;20043;-75
2022/12/11 09:03:53;;;;;;;4.22;1.77;;;17.90;99.90;;;;;;4949679;29;20051;-75
2022/12/11 09:06:22;;;;;;;4.05;1.40;;;18.00;99.90;;;;;;4950840;28;20067;-73
2022/12/11 09:08:51;;;;;;;4.15;1.95;;;18.20;99.90;;;;;;4950760;28;20081;-75
2022/12/11 09:11:23;;;;;;;3.33;1.40;;;18.40;99.90;;;;;;4964576;28;20043;-74
2022/12/11 09:13:51;;;;;;;3.28;1.38;;;18.60;99.90;;;;;;4970699;28;20121;-74
2022/12/11 09:16:21;;;;;;;3.95;1.90;;;18.70;99.90;;;;;;4969653;28;20039;-74
2022/12/11 09:18:50;;;;;;;6.07;1.85;;;18.70;99.90;;;;;;4968357;28;20078;-74
2022/12/11 09:21:22;;;;;;;2.60;1.65;;;18.60;99.90;;;;;;4955929;28;20039;-74
2022/12/11 09:23:56;;;;;;;4.05;2.08;;;18.50;99.90;;;;;;4949401;29;20117;-74
2022/12/11 09:26:25;;;;;;;3.67;1.60;;;18.40;99.90;;;;;;4952894;28;20169;-73
2022/12/11 09:28:53;;;;;;;4.03;2.28;;;18.60;99.90;;;;;;4949511;28;20371;-74
2022/12/11 09:31:32;;;;;;;4.03;2.15;;;18.90;99.90;;;;;;4963888;28;20106;-74
2022/12/11 09:34:05;;;;;;;3.10;2.03;;;19.40;99.90;;;;;;4971446;28;20051;-75
2022/12/11 09:36:34;;;;;;;3.15;1.90;;;19.90;99.90;;;;;;4973753;28;20129;-75
2022/12/11 09:39:04;;;;;;;3.20;1.83;;;20.50;99.90;;;;;;4972490;28;20561;-74
2022/12/11 09:41:48;;;;;;;3.35;1.83;;;20.90;99.90;;;;;;4962623;28;20050;-76
2022/12/11 09:44:30;;;;;;;5.25;2.17;;;21.10;99.90;;;;;;4973871;28;20133;-74
2022/12/11 09:46:58;;;;;;;2.17;1.50;;;21.30;99.90;;;;;;4973702;28;20755;-74
2022/12/11 09:49:42;;;;;;;3.75;1.70;;;21.30;99.90;;;;;;4973681;28;20494;-73
2022/12/11 09:52:57;;;;;;;4.50;3.00;;;21.10;99.90;;;;;;4953177;29;20058;-75
2022/12/11 09:55:34;;;;;;;7.05;3.47;;;21.20;99.90;;;;;;4947866;28;20493;-74
2022/12/11 09:58:04;;;;;;;3.50;2.33;;;21.20;99.90;;;;;;4952998;29;20086;-74
2022/12/11 10:00:42;;;;;;;3.58;1.63;;;21.10;99.90;;;;;;4959596;28;20085;-74
2022/12/11 10:03:49;;;;;;;2.70;1.60;;;20.70;99.90;;;;;;4972594;28;20122;-73
2022/12/11 10:06:26;;;;;;;2.40;1.55;;;20.70;99.90;;;;;;4973793;28;20039;-75
2022/12/11 10:09:02;;;;;;;2.05;1.23;;;20.80;99.90;;;;;;4971916;28;20051;-75
2022/12/11 10:11:44;;;;;;;3.70;1.98;;;21.00;99.90;;;;;;4941316;28;20061;-74
2022/12/11 10:14:42;;;;;;;2.75;1.50;;;21.30;99.90;;;;;;4951889;29;20059;-73
2022/12/11 10:17:22;;;;;;;4.28;1.40;;;21.40;99.90;;;;;;4953711;28;20174;-76
2022/12/11 10:19:50;;;;;;;2.50;1.50;;;21.50;99.90;;;;;;4968346;28;20130;-73
2022/12/11 10:22:22;;;;;;;2.47;1.48;;;21.30;99.90;;;;;;4953931;28;20051;-72
2022/12/11 10:24:52;;;;;;;3.08;1.80;;;21.20;99.90;;;;;;4952125;29;20126;-73
2022/12/11 10:27:39;;;;;;;3.03;1.27;;;21.30;99.90;;;;;;4952417;29;20047;-73
2022/12/11 10:30:17;;;;;;;2.08;1.20;;;20.70;99.90;;;;;;4955579;28;20493;-73
2022/12/11 10:33:06;;;;;;;1.70;1.25;;;20.70;99.90;;;;;;4971734;28;20053;-73
2022/12/11 10:35:49;;;;;;;2.70;1.40;;;20.70;99.90;;;;;;4972653;28;20089;-73
2022/12/11 10:38:29;;;;;;;5.00;2.92;;;20.60;99.90;;;;;;4939566;28;20066;-73
2022/12/11 10:41:01;;;;;;;1.58;1.08;;;20.50;99.90;;;;;;4973682;28;20050;-72
2022/12/11 10:43:52;;;;;;;4.07;1.90;;;20.40;99.90;;;;;;4973456;28;20094;-72
2022/12/11 10:46:22;;;;;;;4.28;1.90;;;20.40;99.90;;;;;;4971992;28;20189;-75
2022/12/11 10:49:00;;;;;;;2.15;1.10;;;20.10;99.90;;;;;;4972932;28;20046;-72
2022/12/11 10:51:31;;;;;;;1.33;0.90;;;20.10;99.90;;;;;;4972002;28;20043;-73
2022/12/11 10:54:23;;;;;;;2.42;1.20;;;20.00;99.90;;;;;;4971044;28;20071;-74
2022/12/11 10:56:52;;;;;;;1.55;0.90;;;20.00;99.90;;;;;;4971347;28;20043;-73
2022/12/11 10:59:35;;;;;;;1.77;1.20;;;19.50;99.90;;;;;;4971030;28;20412;-74
2022/12/11 11:02:04;;;;;;;2.92;1.58;;;19.20;99.90;;;;;;4953689;28;20102;-74
2022/12/11 11:04:37;;;;;;;5.97;1.70;;;18.90;99.90;;;;;;4952028;29;20058;-73
2022/12/11 11:07:08;;;;;;;8.27;2.95;;;18.60;99.90;;;;;;4936335;29;20178;-76
2022/12/11 11:09:36;;;;;;;8.40;2.88;;;18.40;99.90;;;;;;4951598;29;20095;-73
2022/12/11 11:12:03;;;;;;;2.92;1.67;;;18.40;99.90;;;;;;4969072;28;20481;-74
2022/12/11 11:14:34;;;;;;;2.15;1.15;;;18.50;99.90;;;;;;4955328;28;20190;-75
2022/12/11 11:17:01;;;;;;;4.15;1.60;;;18.30;99.90;;;;;;4955033;28;20054;-74
2022/12/11 11:19:35;;;;;;;4.30;1.63;;;18.50;99.90;;;;;;4970773;28;20528;-73
2022/12/11 11:22:11;;;;;;;2.55;1.83;;;18.40;99.90;;;;;;4955248;28;20047;-74
2022/12/11 11:24:43;;;;;;;6.85;1.98;;;18.40;99.90;;;;;;4951422;29;20063;-74
2022/12/11 11:27:35;;;;;;;4.60;2.00;;;18.30;99.90;;;;;;4952976;28;20134;-73
2022/12/11 11:30:09;;;;;;;8.68;3.05;;;18.10;99.90;;;;;;4952906;28;20154;-74
2022/12/11 11:32:38;;;;;;;5.78;3.25;;;18.10;99.90;;;;;;4967718;28;20049;-74
2022/12/11 11:35:12;;;;;;;5.47;2.60;;;18.40;99.90;;;;;;4953972;28;20501;-73
2022/12/11 11:37:45;;;;;;;6.53;2.42;;;18.30;99.90;;;;;;4954572;28;20054;-73
2022/12/11 11:40:13;;;;;;;7.75;2.55;;;18.30;99.90;;;;;;4971228;28;20153;-75
2022/12/11 11:42:59;;;;;;;7.88;3.47;;;18.10;99.90;;;;;;4970524;28;20047;-72
2022/12/11 11:45:39;;;;;;;8.10;3.10;;;18.20;99.90;;;;;;4971498;28;20074;-73
2022/12/11 11:48:20;;;;;;;19.08;6.32;;;18.40;99.90;;;;;;4970260;28;20614;-74
2022/12/11 11:50:50;;;;;;;14.35;7.47;;;18.80;99.90;;;;;;4971269;28;20057;-73
2022/12/11 11:53:36;;;;;;;11.82;4.80;;;18.90;99.90;;;;;;4970123;28;20480;-74
2022/12/11 11:56:26;;;;;;;13.33;3.90;;;18.90;99.90;;;;;;4971306;28;20501;-76
2022/12/11 11:59:16;;;;;;;11.40;3.72;;;18.80;99.90;;;;;;4953681;28;20125;-74
2022/12/11 12:01:43;;;;;;;15.55;4.03;;;18.80;99.90;;;;;;4956121;28;20047;-73
2022/12/11 12:04:11;;;;;;;8.02;4.10;;;18.80;99.90;;;;;;4919322;29;20066;-72
2022/12/11 12:07:11;;;;;;;8.32;4.07;;;18.80;99.90;;;;;;4952152;28;20245;-74
2022/12/11 12:09:51;;;;;;;13.20;6.15;;;18.80;99.90;;;;;;4950594;29;20138;-73
2022/12/11 12:12:41;;;;;;;12.68;5.35;;;19.10;99.90;;;;;;4952181;29;20072;-73
2022/12/11 12:15:38;;;;;;;11.10;4.75;;;19.00;99.90;;;;;;4950451;29;20182;-74
2022/12/11 12:18:38;;;;;;;15.43;6.20;;;18.90;99.90;;;;;;4953493;28;20138;-74
2022/12/11 12:21:16;;;;;;;11.02;3.47;;;18.90;99.90;;;;;;4957043;28;20162;-73
2022/12/11 12:24:11;;;;;;;7.15;3.58;;;19.00;99.90;;;;;;4954257;28;20049;-73
2022/12/11 12:26:45;;;;;;;10.10;4.25;;;19.00;99.90;;;;;;4970937;28;20055;-72
2022/12/11 12:29:34;;;;;;;9.65;2.60;;;18.90;99.90;;;;;;4937710;28;20109;-77
2022/12/11 12:32:20;;;;;;;7.22;3.75;;;19.00;99.90;;;;;;4969695;28;20051;-73
2022/12/11 12:35:15;;;;;;;16.90;6.93;;;18.80;99.90;;;;;;4953564;28;20047;-75
2022/12/11 12:38:10;;;;;;;9.38;4.22;;;18.60;99.90;;;;;;4971018;28;20464;-73
2022/12/11 12:41:18;;;;;;;10.60;4.15;;;18.60;99.90;;;;;;4970656;28;20054;-73
2022/12/11 12:44:07;;;;;;;10.27;4.05;;;18.50;99.90;;;;;;4968606;28;20133;-74
2022/12/11 12:46:58;;;;;;;17.50;5.38;;;18.60;99.90;;;;;;4952983;28;20101;-72
2022/12/11 12:49:28;;;;;;;13.63;3.72;;;18.60;99.90;;;;;;4950153;29;20060;-72
2022/12/11 12:51:58;;;;;;;17.92;8.63;;;18.60;99.90;;;;;;4950013;29;20113;-75
2022/12/11 12:54:28;;;;;;;14.45;5.20;;;18.50;99.90;;;;;;4934842;29;20058;-72
2022/12/11 12:56:57;;;;;;;13.07;4.30;;;18.30;99.90;;;;;;4949905;28;20051;-73
2022/12/11 12:59:26;;;;;;;14.57;5.88;;;18.20;99.90;;;;;;4949911;29;20047;-73
2022/12/11 13:01:58;;;;;;;9.57;3.65;;;18.10;99.90;;;;;;4951519;29;20500;-73
2022/12/11 13:04:43;;;;;;;27.70;6.72;;;18.20;99.90;;;;;;4950470;29;20047;-72
2022/12/11 13:07:30;;;;;;;11.82;5.57;;;18.10;99.90;;;;;;4950989;28;20051;-73
2022/12/11 13:10:21;;;;;;;18.58;4.20;;;18.10;99.90;;;;;;4951603;29;20126;-73
2022/12/11 13:12:49;;;;;;;11.05;4.53;;;18.00;99.90;;;;;;4949995;29;20040;-73
2022/12/11 13:15:26;;;;;;;9.07;4.35;;;17.90;99.90;;;;;;4949687;29;20051;-73
2022/12/11 13:17:53;;;;;;;17.45;4.40;;;17.70;99.90;;;;;;4951110;29;20047;-73
2022/12/11 13:20:25;;;;;;;6.97;3.33;;;17.70;99.90;;;;;;4936633;28;20048;-72